Time;durP1;ratioP1;P1;durP2;ratioP2;P2;SDS_P1;SDS_P2;PMS_P1;PMS_P2;Temp;Humidity;BMP_temperature;BMP_pressure;BME280_temperature;BME280_humidity;BME280_pressure;Samples;Min_cycle;Max_cycle;Signal;HPM_P1;HPM_P2
2022/08/04 00:00:24;;;;;;;;;;;23.20;99.90;;;;;;5010722;28;20042;-52
2022/08/04 00:03:05;;;;;;;6.68;2.65;;;23.10;99.90;;;;;;5010487;28;19928;-56
2022/08/04 00:05:52;;;;;;;10.38;3.35;;;23.10;99.90;;;;;;5011642;28;20053;-56
2022/08/04 00:08:28;;;;;;;14.25;3.20;;;23.10;99.90;;;;;;4995514;28;20049;-53
2022/08/04 00:10:57;;;;;;;6.85;2.78;;;23.20;99.90;;;;;;5013099;28;20104;-51
2022/08/04 00:13:30;;;;;;;5.88;2.85;;;23.10;99.90;;;;;;5014165;28;20457;-52
2022/08/04 00:16:07;;;;;;;7.10;3.03;;;23.10;99.90;;;;;;5013849;28;20042;-55
2022/08/04 00:18:44;;;;;;;9.93;3.08;;;23.00;99.90;;;;;;5013492;28;20050;-53
2022/08/04 00:21:12;;;;;;;12.00;3.50;;;22.90;99.90;;;;;;5013247;28;20053;-53
2022/08/04 00:23:41;;;;;;;6.25;2.97;;;22.90;99.90;;;;;;5013690;28;20117;-55
2022/08/04 00:26:08;;;;;;;7.65;3.28;;;22.90;99.90;;;;;;4977883;28;20057;-52
2022/08/04 00:28:37;;;;;;;7.28;3.10;;;22.90;99.90;;;;;;5009966;28;20136;-53
2022/08/04 00:31:08;;;;;;;9.52;3.80;;;22.90;99.90;;;;;;5013750;28;20044;-54
2022/08/04 00:33:33;;;;;;;8.52;3.55;;;22.90;99.90;;;;;;5013409;28;20046;-51
2022/08/04 00:36:00;;;;;;;9.20;4.00;;;22.80;99.90;;;;;;5013217;28;20120;-51
2022/08/04 00:38:26;;;;;;;11.63;3.88;;;22.80;99.90;;;;;;5013490;28;20049;-53
2022/08/04 00:41:00;;;;;;;7.20;3.22;;;22.70;99.90;;;;;;5011550;28;20042;-52
2022/08/04 00:43:46;;;;;;;8.05;3.28;;;22.70;99.90;;;;;;4994249;28;20048;-53
2022/08/04 00:46:27;;;;;;;9.70;3.92;;;22.70;99.90;;;;;;5013171;28;20038;-55
2022/08/04 00:49:08;;;;;;;9.00;3.72;;;22.70;99.90;;;;;;5011478;28;20093;-54
2022/08/04 00:51:40;;;;;;;12.68;3.67;;;22.60;99.90;;;;;;5011967;28;20393;-51
2022/08/04 00:54:16;;;;;;;10.35;3.92;;;22.60;99.90;;;;;;5013026;28;20069;-49
2022/08/04 00:57:02;;;;;;;10.15;3.92;;;22.60;99.90;;;;;;4994661;28;20037;-53
2022/08/04 01:00:01;;;;;;;9.10;3.60;;;22.50;99.90;;;;;;5012643;28;20038;-53
2022/08/04 01:02:51;;;;;;;8.82;3.78;;;22.50;99.90;;;;;;5012312;28;20477;-55
2022/08/04 01:05:40;;;;;;;9.88;3.30;;;22.30;99.90;;;;;;5012793;28;20042;-53
2022/08/04 01:08:27;;;;;;;9.77;4.03;;;22.30;99.90;;;;;;5012546;28;20158;-50
2022/08/04 01:11:14;;;;;;;9.23;3.92;;;22.20;99.90;;;;;;5012777;28;20121;-48
2022/08/04 01:14:01;;;;;;;10.27;4.00;;;22.10;99.90;;;;;;5012581;28;20088;-53
2022/08/04 01:16:30;;;;;;;12.02;4.10;;;22.10;99.90;;;;;;5011823;28;20046;-54
2022/08/04 01:19:19;;;;;;;9.38;4.03;;;22.10;99.90;;;;;;5012196;28;20053;-54
2022/08/04 01:22:18;;;;;;;11.57;4.28;;;22.00;99.90;;;;;;5011696;28;20061;-49
2022/08/04 01:25:10;;;;;;;12.68;3.90;;;22.00;99.90;;;;;;5012054;28;20420;-52
2022/08/04 01:27:38;;;;;;;9.85;3.75;;;22.00;99.90;;;;;;4993607;28;20457;-54
2022/08/04 01:30:04;;;;;;;9.15;4.07;;;22.00;99.90;;;;;;4992607;28;20038;-51
2022/08/04 01:32:39;;;;;;;6.57;3.72;;;21.90;99.90;;;;;;4975453;28;20100;-52
2022/08/04 01:35:27;;;;;;;10.18;3.80;;;21.80;99.90;;;;;;5012224;28;20046;-52
2022/08/04 01:38:26;;;;;;;8.57;3.58;;;21.80;99.90;;;;;;5012312;28;20039;-54
2022/08/04 01:40:56;;;;;;;9.07;3.58;;;21.80;99.90;;;;;;5010592;28;20052;-53
2022/08/04 01:43:23;;;;;;;6.00;3.05;;;21.70;99.90;;;;;;4994423;28;20497;-51
2022/08/04 01:45:55;;;;;;;7.50;3.78;;;21.60;99.90;;;;;;5011847;28;20033;-49
2022/08/04 01:48:25;;;;;;;6.95;3.33;;;21.60;99.90;;;;;;4993871;28;20045;-49
2022/08/04 01:50:52;;;;;;;7.55;3.50;;;21.70;99.90;;;;;;4991899;28;20042;-51
2022/08/04 01:53:28;;;;;;;7.80;3.45;;;21.50;99.90;;;;;;4974641;28;20101;-52
2022/08/04 01:55:56;;;;;;;7.18;3.60;;;21.40;99.90;;;;;;4992272;28;20509;-51
2022/08/04 01:58:23;;;;;;;8.75;3.60;;;21.30;99.90;;;;;;4992345;28;20445;-50
2022/08/04 02:01:01;;;;;;;8.35;3.33;;;21.30;99.90;;;;;;4992280;28;20056;-55
2022/08/04 02:03:28;;;;;;;12.55;3.72;;;21.30;99.90;;;;;;5010764;28;20049;-51
2022/08/04 02:06:17;;;;;;;8.40;3.90;;;21.20;99.90;;;;;;5011895;28;20560;-50
2022/08/04 02:08:55;;;;;;;8.00;3.50;;;21.10;99.90;;;;;;5010926;28;20070;-48
2022/08/04 02:11:22;;;;;;;9.27;3.80;;;21.10;99.90;;;;;;5011362;28;20034;-50
2022/08/04 02:14:01;;;;;;;9.40;4.13;;;21.10;99.90;;;;;;5011641;28;20029;-53
2022/08/04 02:16:30;;;;;;;8.93;3.95;;;21.00;99.90;;;;;;5011288;28;20056;-52
2022/08/04 02:18:59;;;;;;;9.25;4.15;;;21.00;99.90;;;;;;5011459;28;20049;-53
2022/08/04 02:21:28;;;;;;;9.00;4.07;;;21.00;99.90;;;;;;5011233;28;20112;-49
2022/08/04 02:24:04;;;;;;;9.05;4.57;;;21.00;99.90;;;;;;5011393;28;20521;-49
2022/08/04 02:26:32;;;;;;;8.27;4.25;;;21.00;99.90;;;;;;5010161;28;20041;-54
2022/08/04 02:29:16;;;;;;;9.45;4.50;;;20.90;99.90;;;;;;5010651;28;20125;-53
2022/08/04 02:31:48;;;;;;;8.75;4.28;;;21.10;99.90;;;;;;4993687;28;20124;-53
2022/08/04 02:34:58;;;;;;;9.55;4.45;;;21.00;99.90;;;;;;5011143;28;20496;-51
2022/08/04 02:37:25;;;;;;;8.48;3.75;;;21.00;99.90;;;;;;4995684;28;20049;-51
2022/08/04 02:40:00;;;;;;;8.02;3.83;;;21.00;99.90;;;;;;5011181;28;20117;-52
2022/08/04 02:42:28;;;;;;;10.18;3.50;;;21.00;99.90;;;;;;5011397;28;20022;-49
2022/08/04 02:44:56;;;;;;;7.80;3.45;;;20.90;99.90;;;;;;4993262;28;20535;-46
2022/08/04 02:47:25;;;;;;;9.20;3.58;;;21.00;99.90;;;;;;4993521;28;20092;-50
2022/08/04 02:49:51;;;;;;;7.28;3.15;;;20.90;99.90;;;;;;5010635;28;20053;-51
2022/08/04 02:52:18;;;;;;;11.18;3.85;;;20.80;99.90;;;;;;5011207;28;20045;-52
2022/08/04 02:54:46;;;;;;;9.05;3.53;;;20.90;99.90;;;;;;5011078;28;20041;-51
2022/08/04 02:57:14;;;;;;;8.07;3.78;;;20.90;99.90;;;;;;4993409;28;20033;-54
2022/08/04 03:00:09;;;;;;;8.43;3.70;;;20.90;99.90;;;;;;5009550;28;20120;-53
2022/08/04 03:02:57;;;;;;;9.02;3.90;;;20.90;99.90;;;;;;5010983;28;20060;-53
2022/08/04 03:05:45;;;;;;;10.55;4.03;;;20.90;99.90;;;;;;4992803;28;20088;-49
2022/08/04 03:08:33;;;;;;;7.53;3.75;;;20.90;99.90;;;;;;5010863;28;20042;-51
2022/08/04 03:11:17;;;;;;;6.97;3.83;;;20.90;99.90;;;;;;5010192;28;20042;-51
2022/08/04 03:13:42;;;;;;;;;;;20.70;99.90;;;;;;5011381;28;20030;-53
2022/08/04 03:16:36;;;;;;;9.80;4.38;;;20.50;99.90;;;;;;5010594;28;19917;-52
2022/08/04 03:19:20;;;;;;;8.13;4.20;;;20.60;99.90;;;;;;5010634;28;20108;-55
2022/08/04 03:21:57;;;;;;;7.60;4.10;;;20.50;99.90;;;;;;5010630;28;20115;-54
2022/08/04 03:24:51;;;;;;;8.57;4.60;;;20.50;99.90;;;;;;5011070;28;20045;-54
2022/08/04 03:27:34;;;;;;;8.45;5.13;;;20.50;99.90;;;;;;5010995;28;20044;-51
2022/08/04 03:30:14;;;;;;;8.13;4.47;;;20.40;99.90;;;;;;4993225;28;20044;-53
2022/08/04 03:33:18;;;;;;;10.32;5.25;;;20.30;99.90;;;;;;5009231;28;20042;-50
2022/08/04 03:36:21;;;;;;;7.63;4.53;;;20.50;99.90;;;;;;5009862;28;20041;-48
2022/08/04 03:39:08;;;;;;;10.88;5.88;;;20.50;99.90;;;;;;5010957;28;20049;-51
2022/08/04 03:41:52;;;;;;;9.98;4.70;;;20.40;99.90;;;;;;5004406;28;20481;-53
2022/08/04 03:44:42;;;;;;;9.70;5.22;;;20.40;99.90;;;;;;5013648;28;20087;-49
2022/08/04 03:47:32;;;;;;;9.75;4.80;;;20.40;99.90;;;;;;5014160;28;20042;-54
2022/08/04 03:50:35;;;;;;;9.05;4.90;;;20.30;99.90;;;;;;5013776;28;20105;-51
2022/08/04 03:53:25;;;;;;;9.73;4.90;;;20.40;99.90;;;;;;5014083;28;20042;-52
2022/08/04 03:56:05;;;;;;;8.07;4.88;;;20.50;99.90;;;;;;5014164;28;20879;-47
2022/08/04 03:58:43;;;;;;;11.88;4.95;;;20.40;99.90;;;;;;5013920;28;20034;-52
2022/08/04 04:01:35;;;;;;;8.60;5.03;;;20.50;99.90;;;;;;5013991;28;20037;-51
2022/08/04 04:04:29;;;;;;;10.23;4.38;;;20.60;99.90;;;;;;4990672;28;20053;-53
2022/08/04 04:07:01;;;;;;;;;;;20.60;99.90;;;;;;4995579;28;20043;-48
2022/08/04 04:09:45;;;;;;;9.27;4.85;;;20.50;99.90;;;;;;5013039;28;20376;-54
2022/08/04 04:12:23;;;;;;;11.70;4.90;;;20.50;99.90;;;;;;5013611;28;20045;-48
2022/08/04 04:15:17;;;;;;;9.55;4.55;;;20.50;99.90;;;;;;5013866;28;20080;-53
2022/08/04 04:17:55;;;;;;;9.27;4.50;;;20.30;99.90;;;;;;4994560;28;20081;-48
2022/08/04 04:21:00;;;;;;;9.75;5.65;;;20.30;99.90;;;;;;4993473;28;20050;-53
2022/08/04 04:23:50;;;;;;;10.57;5.57;;;20.20;99.90;;;;;;5012321;28;20045;-56
2022/08/04 04:26:39;;;;;;;13.15;5.90;;;20.20;99.90;;;;;;4994401;28;20061;-50
2022/08/04 04:29:12;;;;;;;8.90;5.78;;;20.10;99.90;;;;;;5012648;28;20038;-53
2022/08/04 04:32:03;;;;;;;11.85;5.75;;;20.10;99.90;;;;;;5013113;28;20056;-52
2022/08/04 04:35:01;;;;;;;9.27;5.55;;;20.10;99.90;;;;;;5013504;28;20600;-53
2022/08/04 04:37:59;;;;;;;9.90;5.43;;;20.10;99.90;;;;;;5013335;28;20046;-51
2022/08/04 04:40:38;;;;;;;10.80;5.75;;;20.10;99.90;;;;;;5012228;28;20042;-55
2022/08/04 04:43:22;;;;;;;9.88;5.47;;;20.20;99.90;;;;;;5012929;28;20125;-50
2022/08/04 04:46:11;;;;;;;15.52;5.82;;;20.10;99.90;;;;;;5012850;28;20045;-50
2022/08/04 04:48:58;;;;;;;11.40;5.28;;;20.30;99.90;;;;;;5012952;28;20145;-52
2022/08/04 04:52:04;;;;;;;12.85;5.70;;;20.40;99.90;;;;;;5012074;28;20037;-51
2022/08/04 04:54:59;;;;;;;12.30;6.10;;;20.40;99.90;;;;;;4994636;28;20128;-53
2022/08/04 04:57:33;;;;;;;8.80;5.78;;;20.50;99.90;;;;;;4988165;28;20383;-53
2022/08/04 05:00:07;;;;;;;9.50;5.43;;;20.50;99.90;;;;;;5012688;28;20469;-53
2022/08/04 05:02:47;;;;;;;8.20;5.47;;;20.50;99.90;;;;;;5013022;28;20037;-54
2022/08/04 05:05:50;;;;;;;11.00;5.97;;;20.60;99.90;;;;;;5012891;28;20045;-49
2022/08/04 05:08:22;;;;;;;14.80;5.82;;;20.60;99.90;;;;;;5012729;28;20133;-52
2022/08/04 05:11:06;;;;;;;18.67;6.50;;;20.70;99.90;;;;;;5012863;28;20034;-52
2022/08/04 05:13:43;;;;;;;14.40;5.82;;;20.80;99.90;;;;;;5012632;28;20045;-52
2022/08/04 05:16:19;;;;;;;13.43;6.03;;;20.90;99.90;;;;;;5012453;28;20034;-51
2022/08/04 05:18:55;;;;;;;14.27;6.00;;;20.90;99.90;;;;;;5012217;28;20452;-49
2022/08/04 05:21:55;;;;;;;14.30;6.05;;;20.90;99.90;;;;;;4992875;28;20089;-54
2022/08/04 05:24:24;;;;;;;14.20;6.28;;;21.00;99.90;;;;;;4989417;28;20505;-54
2022/08/04 05:26:57;;;;;;;13.25;6.20;;;21.20;99.90;;;;;;5011460;28;20037;-47
2022/08/04 05:29:39;;;;;;;12.70;6.35;;;21.30;99.90;;;;;;4992327;28;20046;-51
2022/08/04 05:32:11;;;;;;;13.63;5.53;;;21.40;99.90;;;;;;5011650;28;20116;-51
2022/08/04 05:34:43;;;;;;;11.45;6.07;;;21.40;99.90;;;;;;4993347;28;20043;-50
2022/08/04 05:37:14;;;;;;;9.80;5.88;;;21.50;99.90;;;;;;4994075;28;20505;-52
2022/08/04 05:39:52;;;;;;;10.85;5.63;;;21.50;99.90;;;;;;4992439;28;20042;-48
2022/08/04 05:42:19;;;;;;;10.75;5.45;;;21.60;99.90;;;;;;4993664;28;20478;-50
2022/08/04 05:44:45;;;;;;;11.52;5.38;;;21.70;99.90;;;;;;4999870;28;20036;-55
2022/08/04 05:47:12;;;;;;;10.75;5.93;;;21.70;99.90;;;;;;5012090;28;20049;-56
2022/08/04 05:49:40;;;;;;;9.48;4.93;;;21.90;99.90;;;;;;4993491;28;20045;-50
2022/08/04 05:52:06;;;;;;;14.20;6.45;;;21.90;99.90;;;;;;5011631;28;20046;-48
2022/08/04 05:54:34;;;;;;;9.23;5.70;;;22.00;99.90;;;;;;5011789;28;20101;-56
2022/08/04 05:57:03;;;;;;;13.32;6.30;;;22.10;99.90;;;;;;5012072;28;20034;-53
2022/08/04 05:59:30;;;;;;;8.45;5.15;;;22.10;99.90;;;;;;5011805;28;20160;-55
2022/08/04 06:01:58;;;;;;;11.80;5.30;;;22.20;99.90;;;;;;5011594;28;20052;-53
2022/08/04 06:04:30;;;;;;;10.50;5.57;;;22.30;99.90;;;;;;5011210;28;20119;-53
2022/08/04 06:06:56;;;;;;;11.63;6.05;;;22.40;99.90;;;;;;4994099;28;20042;-53
2022/08/04 06:09:22;;;;;;;11.05;5.65;;;22.50;99.90;;;;;;5011735;28;20033;-52
2022/08/04 06:11:49;;;;;;;10.48;5.60;;;22.70;99.90;;;;;;5011688;28;20037;-54
2022/08/04 06:14:16;;;;;;;10.77;5.40;;;22.80;99.90;;;;;;5011359;28;20124;-56
2022/08/04 06:16:44;;;;;;;8.35;4.72;;;22.90;99.90;;;;;;4975434;28;20034;-54
2022/08/04 06:19:13;;;;;;;9.30;5.38;;;22.90;99.90;;;;;;4991311;28;20230;-53
2022/08/04 06:21:43;;;;;;;9.50;5.05;;;23.00;99.90;;;;;;4991388;28;20518;-53
2022/08/04 06:24:13;;;;;;;8.02;5.15;;;23.10;99.90;;;;;;4999823;28;20034;-50
2022/08/04 06:26:39;;;;;;;9.73;5.40;;;23.20;99.90;;;;;;5011782;28;20030;-51
2022/08/04 06:29:15;;;;;;;10.02;5.18;;;23.30;99.90;;;;;;5011339;28;20469;-55
2022/08/04 06:31:45;;;;;;;8.98;5.30;;;23.30;99.90;;;;;;5011336;28;20057;-57
2022/08/04 06:34:13;;;;;;;11.45;5.70;;;23.40;99.90;;;;;;5011306;28;20053;-50
2022/08/04 06:36:39;;;;;;;10.07;5.25;;;23.50;99.90;;;;;;4975501;28;20052;-48
2022/08/04 06:39:07;;;;;;;12.65;4.95;;;23.50;99.90;;;;;;4992033;28;20045;-55
2022/08/04 06:41:33;;;;;;;10.60;5.55;;;23.60;99.90;;;;;;4991609;28;20117;-50
2022/08/04 06:44:02;;;;;;;13.40;5.57;;;23.80;99.90;;;;;;4991384;28;20051;-52
2022/08/04 06:46:29;;;;;;;8.50;5.15;;;23.80;99.90;;;;;;4991330;28;20034;-52
2022/08/04 06:48:56;;;;;;;11.05;4.85;;;24.00;99.90;;;;;;4991554;28;20039;-52
2022/08/04 06:51:22;;;;;;;10.35;5.45;;;24.10;99.90;;;;;;4991194;28;20030;-53
2022/08/04 06:53:49;;;;;;;11.50;5.95;;;24.10;99.90;;;;;;4991528;28;20478;-53
2022/08/04 06:56:17;;;;;;;12.55;5.35;;;24.20;99.90;;;;;;4991599;28;20050;-54
2022/08/04 06:58:44;;;;;;;13.48;5.72;;;24.20;99.90;;;;;;5010083;28;20504;-53
2022/08/04 07:01:15;;;;;;;11.15;5.18;;;24.40;99.90;;;;;;5010643;28;20044;-51
2022/08/04 07:03:42;;;;;;;10.27;5.03;;;24.40;99.90;;;;;;5011123;28;20042;-54
2022/08/04 07:06:08;;;;;;;9.65;4.65;;;24.50;99.90;;;;;;5009815;28;20473;-56
2022/08/04 07:08:35;;;;;;;10.18;4.45;;;24.60;99.90;;;;;;4993068;28;20045;-51
2022/08/04 07:11:01;;;;;;;12.98;4.32;;;24.60;99.90;;;;;;5010608;28;20038;-52
2022/08/04 07:13:27;;;;;;;9.23;3.83;;;24.70;99.90;;;;;;5010860;28;20045;-55
2022/08/04 07:15:54;;;;;;;10.15;4.10;;;24.80;99.90;;;;;;5014814;28;20061;-52
2022/08/04 07:18:20;;;;;;;9.27;4.18;;;24.90;99.90;;;;;;5013397;28;20136;-50
2022/08/04 07:20:47;;;;;;;10.45;4.47;;;24.90;99.90;;;;;;5014395;28;20085;-53
2022/08/04 07:23:18;;;;;;;8.07;3.85;;;25.00;99.90;;;;;;5012357;28;20042;-52
2022/08/04 07:25:53;;;;;;;10.68;4.53;;;25.00;99.90;;;;;;5003654;28;20049;-53
2022/08/04 07:28:20;;;;;;;8.32;4.40;;;25.10;99.90;;;;;;5008840;28;20037;-54
2022/08/04 07:30:49;;;;;;;12.45;5.00;;;25.10;99.90;;;;;;5012173;28;20120;-51
2022/08/04 07:33:16;;;;;;;11.38;4.53;;;25.20;99.90;;;;;;5011587;28;20176;-51
2022/08/04 07:35:43;;;;;;;14.00;4.70;;;25.20;99.90;;;;;;5007847;28;20041;-49
2022/08/04 07:38:10;;;;;;;10.43;4.50;;;25.40;99.90;;;;;;5010516;28;20040;-50
2022/08/04 07:40:37;;;;;;;8.60;4.50;;;25.40;99.90;;;;;;5010634;28;20038;-50
2022/08/04 07:43:04;;;;;;;11.13;4.43;;;25.50;99.90;;;;;;5006497;28;20095;-52
2022/08/04 07:45:30;;;;;;;12.10;4.90;;;25.60;99.90;;;;;;5009970;28;20044;-49
2022/08/04 07:47:56;;;;;;;10.68;4.18;;;25.70;99.90;;;;;;5009713;28;20038;-49
2022/08/04 07:50:22;;;;;;;7.65;4.03;;;25.80;99.90;;;;;;5009532;28;20097;-54
2022/08/04 07:52:48;;;;;;;10.18;4.45;;;25.70;99.90;;;;;;4992557;28;20096;-50
2022/08/04 07:55:15;;;;;;;8.20;3.85;;;25.80;99.90;;;;;;5008436;28;20081;-54
2022/08/04 07:57:40;;;;;;;9.50;4.47;;;25.80;99.90;;;;;;5010585;28;20045;-56
2022/08/04 08:00:07;;;;;;;12.35;4.68;;;25.80;99.90;;;;;;5008799;28;20045;-55
2022/08/04 08:02:35;;;;;;;10.32;4.60;;;25.80;99.90;;;;;;5009489;28;20038;-53
2022/08/04 08:05:01;;;;;;;9.93;5.13;;;25.80;99.90;;;;;;4990357;28;20142;-55
2022/08/04 08:07:26;;;;;;;11.75;4.65;;;25.90;99.90;;;;;;5010770;28;20066;-53
2022/08/04 08:09:52;;;;;;;9.18;4.88;;;25.90;99.90;;;;;;4990014;28;20541;-52
2022/08/04 08:12:18;;;;;;;9.85;4.75;;;25.90;99.90;;;;;;5009867;28;20048;-52
2022/08/04 08:14:45;;;;;;;13.07;4.78;;;26.00;99.90;;;;;;5011867;28;20345;-54
2022/08/04 08:17:10;;;;;;;9.43;4.57;;;26.00;99.90;;;;;;5010627;28;20490;-52
2022/08/04 08:19:37;;;;;;;9.45;4.50;;;26.10;99.90;;;;;;5011431;28;20040;-53
2022/08/04 08:22:03;;;;;;;8.93;4.70;;;25.90;99.90;;;;;;5011900;28;20044;-53
2022/08/04 08:24:31;;;;;;;11.13;4.40;;;25.80;99.90;;;;;;5010378;28;20618;-50
2022/08/04 08:26:58;;;;;;;7.55;3.65;;;25.90;99.90;;;;;;5008188;28;20077;-54
2022/08/04 08:29:25;;;;;;;7.57;3.47;;;25.90;99.90;;;;;;5008237;28;20054;-50
2022/08/04 08:31:51;;;;;;;9.75;4.53;;;25.80;99.90;;;;;;5009932;28;20092;-50
2022/08/04 08:34:17;;;;;;;7.88;4.13;;;25.70;99.90;;;;;;5010019;28;20038;-54
2022/08/04 08:36:49;;;;;;;12.70;4.68;;;25.70;99.90;;;;;;5009237;28;20307;-52
2022/08/04 08:39:31;;;;;;;10.88;4.07;;;25.70;99.90;;;;;;5007861;28;20481;-52
2022/08/04 08:42:05;;;;;;;9.52;4.25;;;25.80;99.90;;;;;;5012160;28;20050;-50
2022/08/04 08:44:51;;;;;;;9.75;4.78;;;25.70;99.90;;;;;;5010729;28;20053;-54
2022/08/04 08:47:39;;;;;;;10.27;4.60;;;25.80;99.90;;;;;;5010635;28;20073;-52
2022/08/04 08:50:14;;;;;;;8.93;3.85;;;26.00;99.90;;;;;;5010264;28;20053;-53
2022/08/04 08:53:14;;;;;;;9.23;4.68;;;26.10;99.90;;;;;;5011742;28;20041;-53
2022/08/04 08:56:01;;;;;;;11.45;4.32;;;26.00;99.90;;;;;;5009201;28;20033;-52
2022/08/04 08:58:45;;;;;;;8.93;4.18;;;26.10;99.90;;;;;;5009282;28;20511;-53
2022/08/04 09:01:23;;;;;;;8.77;4.15;;;26.20;99.90;;;;;;5008014;28;20041;-53
2022/08/04 09:04:09;;;;;;;9.20;3.97;;;26.20;99.90;;;;;;5008833;28;20034;-52
2022/08/04 09:06:58;;;;;;;7.32;3.72;;;26.30;99.90;;;;;;5008641;28;20037;-53
2022/08/04 09:09:35;;;;;;;9.15;4.28;;;26.10;99.90;;;;;;5006101;28;20495;-55
2022/08/04 09:12:35;;;;;;;9.70;4.40;;;26.10;99.90;;;;;;4990596;28;20503;-50
2022/08/04 09:15:13;;;;;;;10.25;3.20;;;26.00;99.90;;;;;;5009554;28;20048;-50
2022/08/04 09:17:41;;;;;;;7.57;2.80;;;25.90;99.90;;;;;;5009152;28;20085;-51
2022/08/04 09:20:29;;;;;;;7.72;2.72;;;26.10;99.90;;;;;;5010856;28;20046;-53
2022/08/04 09:23:07;;;;;;;5.50;2.50;;;26.00;99.90;;;;;;5010276;28;20046;-51
2022/08/04 09:25:48;;;;;;;5.43;2.40;;;26.30;99.90;;;;;;5009440;28;20040;-50
2022/08/04 09:28:24;;;;;;;6.28;2.60;;;26.20;99.90;;;;;;5008167;28;20064;-53
2022/08/04 09:31:05;;;;;;;7.05;2.03;;;26.30;99.90;;;;;;5008924;28;20038;-50
2022/08/04 09:33:47;;;;;;;5.32;1.55;;;26.20;99.90;;;;;;5007790;28;20493;-51
2022/08/04 09:36:33;;;;;;;3.97;1.30;;;26.20;99.90;;;;;;4991372;28;20045;-50
2022/08/04 09:39:22;;;;;;;6.95;2.00;;;26.20;99.90;;;;;;5009935;28;20091;-54
2022/08/04 09:41:54;;;;;;;3.75;1.40;;;26.30;99.90;;;;;;4990343;28;20073;-55
2022/08/04 09:44:44;;;;;;;4.97;1.98;;;26.70;99.90;;;;;;4993110;28;20046;-54
2022/08/04 09:47:36;;;;;;;9.15;2.08;;;26.40;99.90;;;;;;5010482;28;20045;-55
2022/08/04 09:50:24;;;;;;;8.30;1.88;;;26.40;99.90;;;;;;5008297;28;20469;-53
2022/08/04 09:52:56;;;;;;;6.43;2.53;;;26.30;99.90;;;;;;5008589;28;20041;-52
2022/08/04 09:55:44;;;;;;;10.05;2.45;;;26.40;99.90;;;;;;5006279;28;20093;-57
2022/08/04 09:58:51;;;;;;;7.07;1.73;;;26.50;99.90;;;;;;5005611;28;20049;-55
2022/08/04 10:01:20;;;;;;;7.47;1.90;;;26.40;99.90;;;;;;4999109;28;20062;-53
2022/08/04 10:04:10;;;;;;;11.52;2.10;;;26.70;99.90;;;;;;5006581;28;20046;-53
2022/08/04 10:07:20;;;;;;;9.68;2.13;;;26.40;99.90;;;;;;5006362;28;20068;-53
2022/08/04 10:10:10;;;;;;;7.28;2.22;;;26.40;99.90;;;;;;4967229;28;20051;-54
2022/08/04 10:12:53;;;;;;;10.90;2.45;;;26.80;99.90;;;;;;4965272;28;20042;-51
2022/08/04 10:15:22;;;;;;;7.85;2.10;;;27.10;99.90;;;;;;4997147;28;20125;-53
2022/08/04 10:17:53;;;;;;;8.88;2.35;;;26.90;99.90;;;;;;5006284;28;20057;-51
2022/08/04 10:20:44;;;;;;;5.85;2.30;;;27.00;99.90;;;;;;5008155;28;20042;-51
2022/08/04 10:23:31;;;;;;;7.95;2.28;;;27.10;99.90;;;;;;5005496;28;20033;-57
2022/08/04 10:26:31;;;;;;;7.82;2.20;;;27.50;99.90;;;;;;5006403;28;20678;-52
2022/08/04 10:29:04;;;;;;;8.80;2.20;;;27.60;99.90;;;;;;4970833;28;20054;-53
2022/08/04 10:31:35;;;;;;;6.40;2.00;;;27.60;99.90;;;;;;5004680;28;20034;-53
2022/08/04 10:34:06;;;;;;;4.72;1.80;;;27.70;99.90;;;;;;5008027;28;20127;-53
2022/08/04 10:37:03;;;;;;;4.47;1.40;;;27.60;99.90;;;;;;5006943;28;20037;-53
2022/08/04 10:40:35;;;;;;;3.90;1.15;;;27.50;99.90;;;;;;4998215;28;20053;-53
2022/08/04 10:42:31;;;;;;;5.18;1.40;;;27.70;99.90;;;;;;5007763;28;20089;-56
2022/08/04 10:45:15;;;;;;;6.10;1.50;;;27.60;99.90;;;;;;5008340;28;20053;-52
2022/08/04 10:47:52;;;;;;;5.72;1.80;;;27.50;99.90;;;;;;5008404;28;20050;-53
2022/08/04 10:50:22;;;;;;;4.32;1.50;;;27.50;99.90;;;;;;5007481;28;20558;-54
2022/08/04 10:53:12;;;;;;;5.07;1.60;;;28.00;99.90;;;;;;5004809;28;20042;-52
2022/08/04 10:56:02;;;;;;;4.50;1.30;;;28.10;99.90;;;;;;5007802;28;20370;-53
2022/08/04 10:58:52;;;;;;;5.43;1.33;;;28.10;99.90;;;;;;5007408;28;20038;-52
2022/08/04 11:01:28;;;;;;;7.68;1.60;;;28.00;99.90;;;;;;5006858;28;20062;-52
2022/08/04 11:04:04;;;;;;;5.63;1.90;;;28.00;99.90;;;;;;5006896;28;20045;-49
2022/08/04 11:06:32;;;;;;;4.35;1.40;;;27.80;99.90;;;;;;5007342;28;20045;-53
2022/08/04 11:08:59;;;;;;;3.92;1.38;;;27.80;99.90;;;;;;5007557;28;20041;-53
2022/08/04 11:11:43;;;;;;;4.00;1.20;;;27.60;99.90;;;;;;5006748;28;20116;-55
2022/08/04 11:14:19;;;;;;;;;;;27.50;99.90;;;;;;5007316;28;20096;-53
2022/08/04 11:16:52;;;;;;;2.67;0.93;;;27.40;99.90;;;;;;5007640;28;19921;-53
2022/08/04 11:19:32;;;;;;;4.65;1.15;;;27.30;99.90;;;;;;5006485;28;20073;-56
2022/08/04 11:22:14;;;;;;;2.63;0.80;;;27.40;99.90;;;;;;5005792;28;20042;-52
2022/08/04 11:24:45;;;;;;;4.78;1.17;;;27.10;99.90;;;;;;5007975;28;20030;-55
2022/08/04 11:27:18;;;;;;;5.00;1.35;;;26.80;99.90;;;;;;5007057;28;20045;-52
2022/08/04 11:30:02;;;;;;;;;;;26.80;99.90;;;;;;5008296;28;20105;-54
2022/08/04 11:32:46;;;;;;;3.00;1.05;;;26.80;99.90;;;;;;5007375;28;19941;-54
2022/08/04 11:35:19;;;;;;;;;;;26.80;99.90;;;;;;5008315;28;20053;-54
2022/08/04 11:37:50;;;;;;;2.50;0.68;;;26.70;99.90;;;;;;5007132;28;19917;-52
2022/08/04 11:40:23;;;;;;;2.70;0.88;;;26.40;99.90;;;;;;5006565;28;20042;-53
2022/08/04 11:43:00;;;;;;;3.38;0.90;;;26.30;99.90;;;;;;5007856;28;20045;-52
2022/08/04 11:45:32;;;;;;;4.03;0.90;;;26.20;99.90;;;;;;5007809;28;20168;-54
2022/08/04 11:48:16;;;;;;;2.88;0.95;;;26.10;99.90;;;;;;5005531;28;20030;-54
2022/08/04 11:50:52;;;;;;;4.32;1.05;;;26.00;99.90;;;;;;5007289;28;20037;-53
2022/08/04 11:53:22;;;;;;;2.53;0.90;;;25.90;99.90;;;;;;5007959;28;20117;-53
2022/08/04 11:55:52;;;;;;;3.38;0.90;;;25.80;99.90;;;;;;5004685;28;20042;-52
2022/08/04 11:58:19;;;;;;;1.85;0.80;;;25.70;99.90;;;;;;4989212;28;20481;-53
2022/08/04 12:01:12;;;;;;;3.15;0.75;;;25.60;99.90;;;;;;5005664;28;20030;-55
2022/08/04 12:04:02;;;;;;;5.03;1.20;;;25.50;99.90;;;;;;5010904;28;20123;-55
2022/08/04 12:06:43;;;;;;;3.17;0.93;;;25.40;99.90;;;;;;5011345;28;20045;-53
2022/08/04 12:09:29;;;;;;;3.58;1.00;;;25.50;99.90;;;;;;5010509;28;20038;-51
2022/08/04 12:12:01;;;;;;;2.28;0.82;;;25.40;99.90;;;;;;5010198;28;20042;-53
2022/08/04 12:14:36;;;;;;;2.92;1.02;;;25.60;99.90;;;;;;4993733;28;20037;-54
2022/08/04 12:17:04;;;;;;;2.72;0.90;;;25.80;99.90;;;;;;5011262;28;20517;-52
2022/08/04 12:19:39;;;;;;;4.50;0.95;;;25.80;99.90;;;;;;4974988;28;20131;-56
2022/08/04 12:22:13;;;;;;;2.72;0.80;;;26.40;99.90;;;;;;4972125;28;20042;-51
2022/08/04 12:24:44;;;;;;;4.60;1.27;;;26.60;99.90;;;;;;4974301;28;20117;-51
2022/08/04 12:27:17;;;;;;;3.42;0.88;;;26.50;99.90;;;;;;4973372;28;20031;-54
2022/08/04 12:29:44;;;;;;;2.78;0.90;;;26.70;99.90;;;;;;4972338;28;20042;-52
2022/08/04 12:32:16;;;;;;;2.08;0.70;;;26.70;99.60;;;;;;4973092;28;20088;-57
2022/08/04 12:35:24;;;;;;;3.05;1.00;;;27.00;99.80;;;;;;4973936;28;20074;-53
2022/08/04 12:37:55;;;;;;;2.35;0.77;;;26.80;97.80;;;;;;4973504;28;20039;-52
2022/08/04 12:40:56;;;;;;;2.40;0.82;;;26.90;99.00;;;;;;4972371;28;20050;-51
2022/08/04 12:43:37;;;;;;;3.60;1.17;;;26.90;98.00;;;;;;4971005;28;20058;-53
2022/08/04 12:46:10;;;;;;;3.40;1.00;;;27.20;98.00;;;;;;4987185;28;20411;-56
2022/08/04 12:48:37;;;;;;;3.13;0.90;;;27.30;98.70;;;;;;4971864;28;20042;-53
2022/08/04 12:51:06;;;;;;;2.85;0.80;;;27.30;98.80;;;;;;4968244;28;20305;-53
2022/08/04 12:53:36;;;;;;;2.38;0.85;;;27.80;98.80;;;;;;4971748;28;20045;-57
2022/08/04 12:56:02;;;;;;;3.15;1.10;;;27.50;97.20;;;;;;4971937;28;20521;-53
2022/08/04 12:58:32;;;;;;;2.72;0.77;;;27.70;97.70;;;;;;4968115;28;20039;-54
2022/08/04 13:01:03;;;;;;;1.90;0.80;;;28.40;97.50;;;;;;4972094;28;20050;-52
2022/08/04 13:03:43;;;;;;;4.20;0.90;;;28.50;97.20;;;;;;4971671;28;20038;-54
2022/08/04 13:06:13;;;;;;;2.20;0.90;;;28.50;96.80;;;;;;4971179;28;20110;-56
2022/08/04 13:08:43;;;;;;;3.10;0.80;;;28.60;96.40;;;;;;4972740;28;20038;-54
2022/08/04 13:11:10;;;;;;;2.17;0.80;;;28.30;95.60;;;;;;4971397;28;20953;-55
2022/08/04 13:13:38;;;;;;;1.95;0.90;;;28.50;96.30;;;;;;4967780;28;20057;-54
2022/08/04 13:16:06;;;;;;;3.40;0.90;;;28.80;95.50;;;;;;4973433;28;20475;-52
2022/08/04 13:18:41;;;;;;;3.47;0.95;;;28.70;95.00;;;;;;4988377;28;20058;-54
2022/08/04 13:21:20;;;;;;;4.05;0.80;;;28.60;94.70;;;;;;5010503;28;20048;-53
2022/08/04 13:23:46;;;;;;;4.22;1.00;;;28.70;94.60;;;;;;5008435;28;20112;-54
2022/08/04 13:26:17;;;;;;;2.80;0.82;;;28.40;94.60;;;;;;4991819;28;20109;-52
2022/08/04 13:28:47;;;;;;;2.40;0.93;;;28.30;95.10;;;;;;5010325;28;20046;-57
2022/08/04 13:31:15;;;;;;;2.50;0.80;;;28.80;95.60;;;;;;5009901;28;20053;-54
2022/08/04 13:33:43;;;;;;;2.88;1.08;;;29.00;95.00;;;;;;5010241;28;20045;-55